Time;durP1;ratioP1;P1;durP2;ratioP2;P2;SDS_P1;SDS_P2;PMS_P1;PMS_P2;Temp;Humidity;BMP_temperature;BMP_pressure;BME280_temperature;BME280_humidity;BME280_pressure;Samples;Min_cycle;Max_cycle;Signal;HPM_P1;HPM_P2
2023/12/18 00:01:33;;;;;;;;;30.33;27.33;;;;;;;;5099611;27;46160;-80
2023/12/18 00:04:02;;;;;;;;;24.67;23.67;;;;;;;;5083733;28;45368;-80
2023/12/18 00:06:28;;;;;;;;;28.67;25.67;;;;;;;;5083824;28;46499;-81
2023/12/18 00:08:53;;;;;;;;;23.67;21.33;;;;;;;;5082654;28;45580;-81
2023/12/18 00:11:18;;;;;;;;;30.00;25.67;;;;;;;;5081196;28;45306;-81
2023/12/18 00:13:43;;;;;;;;;25.67;24.67;;;;;;;;5083082;28;45415;-80
2023/12/18 00:16:08;;;;;;;;;23.33;23.33;;;;;;;;5083178;28;47149;-80
2023/12/18 00:18:34;;;;;;;;;29.67;25.33;;;;;;;;5083616;28;46985;-80
2023/12/18 00:20:59;;;;;;;;;28.00;27.33;;;;;;;;5082559;28;45309;-81
2023/12/18 00:23:24;;;;;;;;;28.00;27.00;;;;;;;;5083577;28;45231;-81
2023/12/18 00:25:49;;;;;;;;;30.00;24.33;;;;;;;;5085155;28;45907;-80
2023/12/18 00:28:14;;;;;;;;;28.00;25.67;;;;;;;;5086116;28;48080;-80
2023/12/18 00:30:40;;;;;;;;;26.33;23.33;;;;;;;;5087411;28;45401;-80
2023/12/18 00:33:05;;;;;;;;;26.33;26.33;;;;;;;;5083823;28;45376;-80
2023/12/18 00:35:30;;;;;;;;;29.67;25.67;;;;;;;;5083357;28;45311;-80
2023/12/18 00:37:55;;;;;;;;;25.33;24.33;;;;;;;;5081779;28;47279;-81
2023/12/18 00:40:20;;;;;;;;;27.67;26.33;;;;;;;;5084364;28;45393;-80
2023/12/18 00:42:47;;;;;;;;;31.00;28.33;;;;;;;;5085371;28;45362;-81
2023/12/18 00:45:12;;;;;;;;;32.33;28.33;;;;;;;;5084153;28;45398;-81
2023/12/18 00:47:37;;;;;;;;;28.67;28.00;;;;;;;;5080842;28;48368;-81
2023/12/18 00:50:03;;;;;;;;;30.33;23.67;;;;;;;;5083625;28;45476;-81
2023/12/18 00:52:28;;;;;;;;;26.33;26.33;;;;;;;;5082070;28;45244;-80
2023/12/18 00:54:53;;;;;;;;;30.33;27.33;;;;;;;;5085094;28;45236;-81
2023/12/18 00:57:18;;;;;;;;;37.00;30.00;;;;;;;;5085216;28;45304;-80
2023/12/18 00:59:43;;;;;;;;;34.67;30.00;;;;;;;;5082598;27;45177;-81
2023/12/18 01:02:09;;;;;;;;;27.00;25.00;;;;;;;;5085479;27;45208;-80
2023/12/18 01:04:35;;;;;;;;;27.33;22.33;;;;;;;;5083828;27;45250;-80
2023/12/18 01:07:00;;;;;;;;;27.67;22.67;;;;;;;;5084912;28;45639;-80
2023/12/18 01:09:26;;;;;;;;;29.67;27.67;;;;;;;;5100932;27;45247;-81
2023/12/18 01:11:51;;;;;;;;;34.67;29.67;;;;;;;;5086399;27;45203;-81
2023/12/18 01:14:16;;;;;;;;;31.50;28.50;;;;;;;;5083620;27;45444;-81
2023/12/18 01:16:42;;;;;;;;;29.00;27.00;;;;;;;;5084348;27;45310;-81
2023/12/18 01:19:07;;;;;;;;;32.00;27.00;;;;;;;;5084945;27;45201;-81
2023/12/18 01:21:32;;;;;;;;;33.33;29.00;;;;;;;;5084197;28;45192;-80
2023/12/18 01:23:59;;;;;;;;;30.33;27.00;;;;;;;;5099821;27;46148;-81
2023/12/18 01:26:24;;;;;;;;;35.00;26.33;;;;;;;;5100175;27;47289;-81
2023/12/18 01:28:49;;;;;;;;;22.00;20.33;;;;;;;;5082454;27;45541;-81
2023/12/18 01:31:21;;;;;;;;;31.33;27.00;;;;;;;;5083863;27;45278;-81
2023/12/18 01:33:47;;;;;;;;;34.33;29.00;;;;;;;;5082825;28;45382;-81
2023/12/18 01:36:12;;;;;;;;;31.67;29.33;;;;;;;;5083810;27;45479;-81
2023/12/18 01:38:37;;;;;;;;;33.33;29.33;;;;;;;;5084783;27;45416;-81
2023/12/18 01:41:02;;;;;;;;;32.67;29.67;;;;;;;;5079562;28;45145;-81
2023/12/18 01:43:27;;;;;;;;;32.67;27.33;;;;;;;;5082323;28;45429;-81
2023/12/18 01:45:59;;;;;;;;;39.33;34.00;;;;;;;;5100585;27;45353;-81
2023/12/18 01:48:25;;;;;;;;;29.67;27.00;;;;;;;;5103486;27;45258;-81
2023/12/18 01:50:52;;;;;;;;;25.33;22.67;;;;;;;;5084097;27;45399;-81
2023/12/18 01:53:17;;;;;;;;;30.33;28.00;;;;;;;;5063765;28;47598;-81
2023/12/18 01:55:43;;;;;;;;;30.33;28.00;;;;;;;;5081352;28;45347;-80
2023/12/18 01:58:08;;;;;;;;;28.33;26.00;;;;;;;;5080244;28;45323;-80
2023/12/18 02:00:33;;;;;;;;;27.33;24.67;;;;;;;;5083807;27;45264;-81
2023/12/18 02:02:59;;;;;;;;;27.33;22.67;;;;;;;;5081391;27;45523;-81
2023/12/18 02:05:24;;;;;;;;;33.00;29.33;;;;;;;;5091590;27;47653;-81
2023/12/18 02:07:50;;;;;;;;;30.33;27.00;;;;;;;;5086902;28;46152;-81
2023/12/18 02:10:16;;;;;;;;;27.00;26.00;;;;;;;;5069171;28;45374;-81
2023/12/18 02:12:41;;;;;;;;;26.00;24.67;;;;;;;;5088937;28;45495;-81
2023/12/18 02:15:06;;;;;;;;;25.33;22.67;;;;;;;;5087687;28;45290;-81
2023/12/18 02:17:31;;;;;;;;;26.67;23.67;;;;;;;;5090382;28;45465;-80
2023/12/18 02:20:06;;;;;;;;;16.33;15.33;;;;;;;;5088522;28;45355;-81
2023/12/18 02:22:46;;;;;;;;;24.67;24.00;;;;;;;;5090381;28;45406;-81
2023/12/18 02:25:12;;;;;;;;;27.00;26.00;;;;;;;;5087111;28;46543;-80
2023/12/18 02:27:37;;;;;;;;;27.33;24.67;;;;;;;;5069014;28;45351;-80
2023/12/18 02:30:03;;;;;;;;;29.00;23.67;;;;;;;;5069944;28;45356;-81
2023/12/18 02:32:28;;;;;;;;;28.33;27.33;;;;;;;;5088651;28;45536;-81
2023/12/18 02:34:53;;;;;;;;;23.00;20.67;;;;;;;;5090360;28;46294;-81
2023/12/18 02:37:18;;;;;;;;;27.00;22.33;;;;;;;;5092152;28;45358;-80
2023/12/18 02:39:44;;;;;;;;;23.33;21.67;;;;;;;;5089412;28;45267;-80
2023/12/18 02:42:09;;;;;;;;;28.33;26.33;;;;;;;;5088998;28;46479;-80
2023/12/18 02:44:34;;;;;;;;;27.67;25.33;;;;;;;;5090505;28;46294;-80
2023/12/18 02:46:59;;;;;;;;;29.00;22.00;;;;;;;;5088469;28;45378;-80
2023/12/18 02:49:24;;;;;;;;;27.00;23.67;;;;;;;;5087154;28;45404;-81
2023/12/18 02:51:51;;;;;;;;;22.67;20.67;;;;;;;;5087831;28;45446;-80
2023/12/18 02:54:16;;;;;;;;;26.00;24.67;;;;;;;;5088509;28;45342;-80
2023/12/18 02:56:41;;;;;;;;;24.67;21.33;;;;;;;;5087762;28;45286;-81
2023/12/18 02:59:07;;;;;;;;;25.00;22.00;;;;;;;;5089595;27;45345;-81
2023/12/18 03:01:32;;;;;;;;;23.67;22.00;;;;;;;;5104020;27;46860;-80
2023/12/18 03:03:57;;;;;;;;;25.33;23.00;;;;;;;;5087636;27;45435;-81
2023/12/18 03:06:23;;;;;;;;;20.33;19.67;;;;;;;;5088565;27;45336;-80
2023/12/18 03:08:48;;;;;;;;;29.00;22.67;;;;;;;;5089231;27;45220;-81
2023/12/18 03:11:13;;;;;;;;;24.67;21.33;;;;;;;;5104859;27;47376;-81
2023/12/18 03:13:38;;;;;;;;;21.00;20.33;;;;;;;;5101613;27;47956;-82
2023/12/18 03:16:03;;;;;;;;;20.67;19.00;;;;;;;;5087021;28;45384;-81
2023/12/18 03:18:29;;;;;;;;;20.00;18.00;;;;;;;;5069306;28;45812;-80
2023/12/18 03:20:54;;;;;;;;;24.00;20.67;;;;;;;;5086165;28;45387;-80
2023/12/18 03:23:19;;;;;;;;;23.67;20.67;;;;;;;;5067709;28;47015;-80
2023/12/18 03:25:44;;;;;;;;;22.67;21.33;;;;;;;;5083565;28;46082;-80
2023/12/18 03:28:09;;;;;;;;;19.33;18.33;;;;;;;;5068230;28;45379;-80
2023/12/18 03:30:34;;;;;;;;;23.33;21.33;;;;;;;;5086934;28;45313;-81
2023/12/18 03:33:00;;;;;;;;;24.33;21.67;;;;;;;;5084951;28;46403;-81
2023/12/18 03:35:25;;;;;;;;;23.67;23.00;;;;;;;;5083871;28;45503;-80
2023/12/18 03:37:50;;;;;;;;;24.67;22.67;;;;;;;;5083301;28;45262;-81
2023/12/18 03:40:15;;;;;;;;;25.00;22.67;;;;;;;;5085340;28;45414;-81
2023/12/18 03:42:41;;;;;;;;;27.00;23.00;;;;;;;;5064918;28;46904;-80
2023/12/18 03:45:06;;;;;;;;;26.33;21.33;;;;;;;;5082943;28;45544;-81
2023/12/18 03:47:31;;;;;;;;;18.67;15.33;;;;;;;;5084244;28;45315;-81
2023/12/18 03:49:57;;;;;;;;;22.33;19.33;;;;;;;;5085026;28;45299;-80
2023/12/18 03:52:22;;;;;;;;;21.67;20.33;;;;;;;;5084343;28;48110;-80
2023/12/18 03:54:47;;;;;;;;;20.67;20.67;;;;;;;;5082668;28;45414;-80
2023/12/18 03:57:12;;;;;;;;;16.33;14.33;;;;;;;;5085366;28;45559;-80
2023/12/18 03:59:38;;;;;;;;;21.67;18.33;;;;;;;;5085198;28;47188;-80
2023/12/18 04:02:03;;;;;;;;;19.00;17.33;;;;;;;;5085475;28;46294;-81
2023/12/18 04:04:28;;;;;;;;;22.33;19.00;;;;;;;;5087050;28;45385;-81
2023/12/18 04:06:53;;;;;;;;;24.67;21.00;;;;;;;;5086866;27;45281;-81
2023/12/18 04:09:18;;;;;;;;;21.67;19.67;;;;;;;;5100060;27;45998;-80
2023/12/18 04:11:44;;;;;;;;;10.33;9.33;;;;;;;;5083738;27;46281;-81
2023/12/18 04:14:09;;;;;;;;;19.67;19.67;;;;;;;;5085422;27;45500;-81
2023/12/18 04:16:35;;;;;;;;;21.67;17.33;;;;;;;;5086977;27;45355;-80
2023/12/18 04:19:00;;;;;;;;;18.33;16.00;;;;;;;;5081772;28;45995;-81
2023/12/18 04:21:25;;;;;;;;;21.00;20.33;;;;;;;;5100573;27;47286;-81
2023/12/18 04:23:50;;;;;;;;;15.00;13.33;;;;;;;;5084946;27;45403;-81
2023/12/18 04:26:15;;;;;;;;;17.67;16.67;;;;;;;;5085444;27;45321;-81
2023/12/18 04:28:41;;;;;;;;;17.33;15.33;;;;;;;;5082945;27;45359;-80
2023/12/18 04:31:06;;;;;;;;;23.67;19.00;;;;;;;;5083997;27;46593;-80
2023/12/18 04:33:31;;;;;;;;;18.00;17.67;;;;;;;;5082130;28;45420;-81
2023/12/18 04:35:57;;;;;;;;;20.00;17.33;;;;;;;;5100141;27;45366;-80
2023/12/18 04:38:23;;;;;;;;;18.67;14.67;;;;;;;;5084256;27;45467;-80
2023/12/18 04:40:48;;;;;;;;;20.67;16.33;;;;;;;;5082606;27;46422;-80
2023/12/18 04:43:13;;;;;;;;;22.33;19.67;;;;;;;;5083766;27;45337;-80
2023/12/18 04:45:38;;;;;;;;;24.00;18.67;;;;;;;;5082001;28;45441;-80
2023/12/18 04:48:04;;;;;;;;;20.00;20.00;;;;;;;;5082438;28;46025;-80
2023/12/18 04:50:29;;;;;;;;;23.67;19.33;;;;;;;;5082928;27;45345;-81
2023/12/18 04:52:54;;;;;;;;;24.67;20.00;;;;;;;;5085300;27;45187;-81
2023/12/18 04:55:19;;;;;;;;;21.33;19.33;;;;;;;;5084237;28;45345;-81
2023/12/18 04:57:44;;;;;;;;;18.67;17.67;;;;;;;;5082664;27;45240;-80
2023/12/18 05:00:10;;;;;;;;;13.67;13.67;;;;;;;;5082446;28;48342;-80
2023/12/18 05:02:36;;;;;;;;;12.67;12.67;;;;;;;;5082895;28;45322;-80
2023/12/18 05:05:01;;;;;;;;;18.67;15.00;;;;;;;;5085076;28;45122;-80
2023/12/18 05:07:27;;;;;;;;;15.33;15.00;;;;;;;;5066008;28;45196;-80
2023/12/18 05:09:52;;;;;;;;;18.33;16.33;;;;;;;;5066923;28;47138;-81
2023/12/18 05:12:17;;;;;;;;;18.00;16.33;;;;;;;;5082039;28;45425;-81
2023/12/18 05:14:42;;;;;;;;;14.33;11.33;;;;;;;;5083823;28;45224;-80
2023/12/18 05:17:08;;;;;;;;;14.67;14.00;;;;;;;;5082475;28;47269;-81
2023/12/18 05:19:33;;;;;;;;;14.67;14.67;;;;;;;;5065267;28;48241;-80
2023/12/18 05:21:58;;;;;;;;;15.00;13.33;;;;;;;;5065759;28;45945;-80
2023/12/18 05:24:23;;;;;;;;;16.33;14.00;;;;;;;;5083742;28;45298;-81
2023/12/18 05:26:49;;;;;;;;;16.00;14.00;;;;;;;;5084667;28;45434;-80
2023/12/18 05:29:14;;;;;;;;;12.67;11.67;;;;;;;;5081108;28;47046;-80
2023/12/18 05:31:39;;;;;;;;;14.67;13.67;;;;;;;;5084551;28;45254;-80
2023/12/18 05:34:04;;;;;;;;;12.00;10.33;;;;;;;;5083189;28;45309;-81
2023/12/18 05:36:30;;;;;;;;;9.00;9.00;;;;;;;;5082364;28;45350;-80
2023/12/18 05:38:55;;;;;;;;;13.00;13.00;;;;;;;;5081716;28;46135;-81
2023/12/18 05:41:20;;;;;;;;;14.67;12.33;;;;;;;;5082368;28;45281;-81
2023/12/18 05:43:45;;;;;;;;;16.00;14.33;;;;;;;;5084319;28;45323;-81
2023/12/18 05:46:12;;;;;;;;;11.67;10.00;;;;;;;;5084968;28;45390;-81
2023/12/18 05:48:37;;;;;;;;;17.33;13.33;;;;;;;;5082408;28;45454;-81
2023/12/18 05:51:02;;;;;;;;;14.00;11.67;;;;;;;;5081637;28;45375;-80
2023/12/18 05:53:27;;;;;;;;;9.33;8.33;;;;;;;;5084754;28;45338;-80
2023/12/18 05:55:52;;;;;;;;;13.67;13.00;;;;;;;;5086143;28;45430;-80
2023/12/18 05:58:17;;;;;;;;;17.67;14.00;;;;;;;;5083556;28;46704;-80
2023/12/18 06:00:43;;;;;;;;;10.33;9.00;;;;;;;;5083683;27;45413;-81
2023/12/18 06:03:08;;;;;;;;;16.00;14.33;;;;;;;;5081506;27;45259;-81
2023/12/18 06:05:33;;;;;;;;;10.33;9.00;;;;;;;;5083240;27;45252;-80
2023/12/18 06:07:58;;;;;;;;;14.33;12.67;;;;;;;;5099775;27;48261;-81
2023/12/18 06:10:23;;;;;;;;;13.00;12.00;;;;;;;;5083081;28;45366;-80
2023/12/18 06:12:51;;;;;;;;;15.33;13.67;;;;;;;;5082104;27;45294;-80
2023/12/18 06:15:16;;;;;;;;;15.33;13.00;;;;;;;;5082816;27;45324;-80
2023/12/18 06:17:41;;;;;;;;;18.00;14.67;;;;;;;;5064459;28;46432;-81
2023/12/18 06:20:06;;;;;;;;;15.33;13.00;;;;;;;;5083268;28;45291;-81
2023/12/18 06:22:31;;;;;;;;;12.00;10.00;;;;;;;;5083885;28;45382;-81
2023/12/18 06:24:57;;;;;;;;;14.67;12.33;;;;;;;;5080520;28;45760;-80
2023/12/18 06:27:22;;;;;;;;;16.67;13.33;;;;;;;;5081414;28;46113;-81
2023/12/18 06:29:47;;;;;;;;;15.33;13.00;;;;;;;;5082830;28;45361;-81
2023/12/18 06:32:14;;;;;;;;;20.00;15.67;;;;;;;;5085426;28;45382;-81
2023/12/18 06:34:39;;;;;;;;;14.00;13.33;;;;;;;;5079348;28;45369;-82
2023/12/18 06:37:05;;;;;;;;;14.33;12.33;;;;;;;;5079293;28;45358;-83
2023/12/18 06:39:30;;;;;;;;;12.33;12.33;;;;;;;;5061217;28;45873;-82
2023/12/18 06:41:55;;;;;;;;;14.67;13.67;;;;;;;;5061323;28;45347;-82
2023/12/18 06:44:21;;;;;;;;;14.00;11.00;;;;;;;;5062452;28;47025;-82
2023/12/18 06:46:46;;;;;;;;;14.00;12.00;;;;;;;;5079625;28;45687;-81
2023/12/18 06:49:11;;;;;;;;;13.67;13.67;;;;;;;;5079194;28;45373;-81
2023/12/18 06:51:36;;;;;;;;;14.67;13.67;;;;;;;;5080510;28;45402;-80
2023/12/18 06:54:01;;;;;;;;;14.00;14.00;;;;;;;;5081450;28;47253;-82
2023/12/18 06:56:26;;;;;;;;;15.33;14.00;;;;;;;;5066676;28;47177;-81
2023/12/18 06:58:52;;;;;;;;;17.67;14.00;;;;;;;;5087523;27;45286;-80
2023/12/18 07:01:17;;;;;;;;;18.00;14.00;;;;;;;;5107701;27;45256;-81
2023/12/18 07:03:42;;;;;;;;;18.67;18.00;;;;;;;;5087101;27;45484;-80
2023/12/18 07:06:08;;;;;;;;;19.33;18.00;;;;;;;;5080072;28;47445;-79
2023/12/18 07:08:33;;;;;;;;;11.00;11.00;;;;;;;;5064094;28;45367;-80
2023/12/18 07:10:58;;;;;;;;;18.67;16.00;;;;;;;;5082203;28;45276;-80
2023/12/18 07:13:23;;;;;;;;;14.33;12.00;;;;;;;;5081064;28;46093;-80
2023/12/18 07:15:49;;;;;;;;;13.67;13.67;;;;;;;;5081533;28;46441;-80
2023/12/18 07:18:14;;;;;;;;;13.33;12.67;;;;;;;;5082671;28;45365;-80
2023/12/18 07:20:39;;;;;;;;;12.33;12.33;;;;;;;;5082752;28;45229;-80
2023/12/18 07:23:05;;;;;;;;;14.33;13.67;;;;;;;;5081620;28;45441;-81
2023/12/18 07:25:30;;;;;;;;;11.67;11.33;;;;;;;;5063745;28;47375;-81
2023/12/18 07:27:55;;;;;;;;;15.33;13.00;;;;;;;;5063813;28;46207;-80
2023/12/18 07:30:20;;;;;;;;;13.67;13.67;;;;;;;;5080998;28;45349;-80
2023/12/18 07:32:45;;;;;;;;;18.00;16.67;;;;;;;;5082149;28;45330;-81
2023/12/18 07:35:11;;;;;;;;;6.67;6.33;;;;;;;;5081966;28;46212;-80
2023/12/18 07:37:36;;;;;;;;;12.33;11.33;;;;;;;;5082062;28;45150;-82
2023/12/18 07:40:03;;;;;;;;;13.00;13.00;;;;;;;;5082380;28;45166;-80
2023/12/18 07:42:28;;;;;;;;;12.00;11.00;;;;;;;;5081902;28;45545;-81
2023/12/18 07:44:53;;;;;;;;;14.67;14.67;;;;;;;;5081948;28;45330;-83
2023/12/18 07:47:18;;;;;;;;;16.00;13.33;;;;;;;;5082001;28;45409;-81
2023/12/18 07:49:44;;;;;;;;;10.33;6.67;;;;;;;;5081394;28;45352;-81
2023/12/18 07:52:09;;;;;;;;;15.33;14.00;;;;;;;;5081668;28;45373;-81
2023/12/18 07:54:36;;;;;;;;;12.00;11.00;;;;;;;;5079687;28;46559;-80
2023/12/18 07:57:02;;;;;;;;;14.00;12.33;;;;;;;;5081008;28;45405;-80
2023/12/18 07:59:28;;;;;;;;;20.00;14.00;;;;;;;;5082059;27;45223;-80
2023/12/18 08:01:53;;;;;;;;;22.67;17.67;;;;;;;;5078561;27;45379;-81
2023/12/18 08:04:18;;;;;;;;;16.67;13.33;;;;;;;;5081472;28;45219;-81
2023/12/18 08:06:44;;;;;;;;;15.33;15.00;;;;;;;;5081068;28;45259;-80
2023/12/18 08:09:09;;;;;;;;;16.33;13.00;;;;;;;;5081329;28;45220;-81
2023/12/18 08:11:34;;;;;;;;;17.67;14.00;;;;;;;;5081067;28;45430;-81
2023/12/18 08:14:00;;;;;;;;;15.33;15.33;;;;;;;;5081282;28;45343;-80
2023/12/18 08:16:25;;;;;;;;;22.67;20.00;;;;;;;;5079750;27;45390;-81
2023/12/18 08:18:50;;;;;;;;;25.67;21.33;;;;;;;;5063084;28;45367;-80
2023/12/18 08:21:15;;;;;;;;;25.00;25.00;;;;;;;;5068581;28;46554;-81
2023/12/18 08:23:41;;;;;;;;;18.33;17.00;;;;;;;;5096767;27;47888;-81
2023/12/18 08:26:06;;;;;;;;;16.67;15.67;;;;;;;;5080925;28;45612;-82
2023/12/18 08:28:31;;;;;;;;;15.67;14.67;;;;;;;;5079999;27;45345;-80
2023/12/18 08:30:57;;;;;;;;;22.33;19.00;;;;;;;;5081266;28;45220;-82
2023/12/18 08:33:22;;;;;;;;;19.00;17.33;;;;;;;;5080462;28;45564;-82
2023/12/18 08:35:50;;;;;;;;;24.67;22.67;;;;;;;;5081215;28;45518;-83
2023/12/18 08:38:15;;;;;;;;;24.00;22.67;;;;;;;;5074191;28;45400;-82
2023/12/18 08:40:40;;;;;;;;;26.67;22.33;;;;;;;;5076017;28;45524;-82
2023/12/18 08:43:06;;;;;;;;;28.00;23.33;;;;;;;;5080041;28;45452;-82
2023/12/18 08:45:31;;;;;;;;;39.25;34.75;;;;;;;;5080383;28;45354;-78
2023/12/18 08:47:59;;;;;;;;;29.33;26.67;;;;;;;;5080062;28;45551;-79
2023/12/18 08:50:25;;;;;;;;;22.67;19.00;;;;;;;;5079248;28;45197;-78
2023/12/18 08:52:50;;;;;;;;;21.67;19.67;;;;;;;;5078911;28;45533;-78
2023/12/18 08:55:15;;;;;;;;;29.33;22.67;;;;;;;;5078770;28;45268;-80
2023/12/18 08:57:40;;;;;;;;;29.00;22.33;;;;;;;;5079197;28;45407;-81
2023/12/18 09:00:06;;;;;;;;;24.33;22.67;;;;;;;;5076869;27;45607;-82
2023/12/18 09:02:31;;;;;;;;;25.00;23.00;;;;;;;;5065316;28;47950;-79
2023/12/18 09:04:56;;;;;;;;;23.00;22.00;;;;;;;;5079535;28;45244;-80
2023/12/18 09:07:21;;;;;;;;;22.00;21.00;;;;;;;;5078525;28;45648;-80
2023/12/18 09:09:47;;;;;;;;;19.67;19.33;;;;;;;;5078139;28;46393;-79
2023/12/18 09:12:12;;;;;;;;;24.00;22.33;;;;;;;;5077445;28;48368;-79
2023/12/18 09:14:37;;;;;;;;;28.33;24.00;;;;;;;;5078120;28;45344;-80
2023/12/18 09:17:03;;;;;;;;;26.33;22.67;;;;;;;;5079506;28;45295;-79
2023/12/18 09:19:29;;;;;;;;;21.00;19.33;;;;;;;;5078082;28;46269;-81
2023/12/18 09:21:54;;;;;;;;;29.00;25.00;;;;;;;;5077909;28;48117;-80
2023/12/18 09:24:19;;;;;;;;;25.67;22.33;;;;;;;;5077710;28;45967;-80
2023/12/18 09:26:44;;;;;;;;;18.67;18.33;;;;;;;;5079441;28;45383;-80
2023/12/18 09:29:10;;;;;;;;;31.67;26.00;;;;;;;;5078743;28;45391;-80
2023/12/18 09:31:35;;;;;;;;;23.67;20.67;;;;;;;;5060974;28;48390;-79
2023/12/18 09:34:00;;;;;;;;;26.00;23.67;;;;;;;;5078020;28;45799;-81
2023/12/18 09:36:25;;;;;;;;;30.67;29.67;;;;;;;;5060829;28;45324;-81
2023/12/18 09:38:50;;;;;;;;;21.50;21.50;;;;;;;;5078665;28;45349;-80
2023/12/18 09:41:23;;;;;;;;;32.00;28.67;;;;;;;;5078667;28;46306;-80
2023/12/18 09:43:49;;;;;;;;;22.33;21.67;;;;;;;;5076996;28;45329;-81
2023/12/18 09:46:14;;;;;;;;;29.33;29.00;;;;;;;;5060560;28;45609;-80
2023/12/18 09:48:40;;;;;;;;;33.00;31.00;;;;;;;;5078409;28;45332;-82
2023/12/18 09:51:07;;;;;;;;;24.67;24.67;;;;;;;;5077780;28;47372;-83
2023/12/18 09:53:33;;;;;;;;;28.67;26.00;;;;;;;;5078055;28;45458;-82
2023/12/18 09:55:59;;;;;;;;;22.00;21.00;;;;;;;;5060035;28;45292;-80
2023/12/18 09:58:24;;;;;;;;;34.50;32.25;;;;;;;;5078546;28;45531;-82
2023/12/18 10:00:50;;;;;;;;;27.67;24.00;;;;;;;;5078636;27;46435;-81
2023/12/18 10:03:16;;;;;;;;;26.00;23.33;;;;;;;;5079542;27;45411;-81
2023/12/18 10:05:42;;;;;;;;;28.67;24.00;;;;;;;;5079401;27;45315;-82
2023/12/18 10:08:09;;;;;;;;;19.00;18.33;;;;;;;;5080764;27;45951;-82
2023/12/18 10:10:34;;;;;;;;;24.00;22.00;;;;;;;;5078951;28;45315;-80
2023/12/18 10:13:03;;;;;;;;;26.67;22.67;;;;;;;;5080178;28;45434;-80
2023/12/18 10:15:29;;;;;;;;;25.00;22.67;;;;;;;;5083153;28;45660;-81
2023/12/18 10:17:54;;;;;;;;;24.33;21.33;;;;;;;;5060652;28;47526;-81
2023/12/18 10:20:19;;;;;;;;;32.67;31.33;;;;;;;;5078411;28;45402;-81
2023/12/18 10:22:44;;;;;;;;;35.00;30.67;;;;;;;;5060222;28;45316;-82
2023/12/18 10:25:10;;;;;;;;;29.00;27.67;;;;;;;;5079180;28;45267;-81
2023/12/18 10:27:38;;;;;;;;;21.67;18.33;;;;;;;;5081757;28;45466;-82
2023/12/18 10:30:07;;;;;;;;;29.00;24.33;;;;;;;;5080997;28;48423;-83
2023/12/18 10:32:35;;;;;;;;;23.33;21.67;;;;;;;;5082562;28;45241;-82
2023/12/18 10:35:01;;;;;;;;;26.67;22.67;;;;;;;;5084541;28;45328;-82
2023/12/18 10:37:28;;;;;;;;;24.67;22.33;;;;;;;;5081088;28;46154;-81
2023/12/18 10:39:56;;;;;;;;;31.00;25.67;;;;;;;;5081974;28;46485;-82
2023/12/18 10:42:30;;;;;;;;;28.67;26.33;;;;;;;;5083566;28;45307;-83
2023/12/18 10:44:56;;;;;;;;;30.00;24.00;;;;;;;;5083952;28;45353;-80
2023/12/18 10:47:22;;;;;;;;;27.33;21.33;;;;;;;;5067232;28;47132;-81
2023/12/18 10:49:48;;;;;;;;;29.33;24.00;;;;;;;;5083323;28;46229;-82
2023/12/18 10:52:14;;;;;;;;;19.00;18.33;;;;;;;;5082861;28;45327;-82
2023/12/18 10:54:39;;;;;;;;;23.00;19.33;;;;;;;;5065344;28;45265;-83
2023/12/18 10:57:07;;;;;;;;;24.67;22.00;;;;;;;;5083200;28;45422;-83
2023/12/18 10:59:32;;;;;;;;;23.00;23.00;;;;;;;;5083353;27;45395;-83
2023/12/18 11:01:57;;;;;;;;;28.33;24.33;;;;;;;;5081536;27;45177;-82
2023/12/18 11:04:23;;;;;;;;;30.33;23.33;;;;;;;;5083844;28;45219;-83
2023/12/18 11:06:49;;;;;;;;;25.67;22.00;;;;;;;;5065150;28;46056;-84
2023/12/18 11:09:14;;;;;;;;;25.00;25.00;;;;;;;;5065548;28;48152;-81
2023/12/18 11:11:40;;;;;;;;;30.00;29.67;;;;;;;;5064493;28;45428;-82
2023/12/18 11:14:17;;;;;;;;;31.50;27.25;;;;;;;;5082860;28;45286;-82
2023/12/18 11:17:15;;;;;;;;;37.33;33.67;;;;;;;;5082471;28;45322;-81
2023/12/18 11:19:47;;;;;;;;;29.33;28.67;;;;;;;;5037507;28;45450;-83
2023/12/18 11:22:15;;;;;;;;;30.00;29.00;;;;;;;;5064902;28;45296;-84
2023/12/18 11:24:40;;;;;;;;;30.67;28.33;;;;;;;;5065490;28;45352;-81
2023/12/18 11:27:06;;;;;;;;;30.67;28.33;;;;;;;;5063703;28;45340;-84
2023/12/18 11:29:33;;;;;;;;;33.75;29.75;;;;;;;;5063904;28;48185;-83
2023/12/18 11:31:58;;;;;;;;;37.75;33.00;;;;;;;;5082666;28;45248;-83
2023/12/18 11:34:25;;;;;;;;;30.00;25.25;;;;;;;;5083397;28;45481;-82
2023/12/18 11:36:50;;;;;;;;;40.25;35.75;;;;;;;;5081162;28;45546;-81
2023/12/18 11:39:15;;;;;;;;;31.75;31.50;;;;;;;;5062194;28;47202;-81
2023/12/18 11:41:47;;;;;;;;;31.25;27.50;;;;;;;;5076583;28;45468;-81
2023/12/18 11:44:14;;;;;;;;;34.33;29.00;;;;;;;;5081179;28;45363;-79
2023/12/18 11:46:39;;;;;;;;;31.67;29.00;;;;;;;;5062824;28;46131;-82
2023/12/18 11:49:06;;;;;;;;;31.00;26.67;;;;;;;;5064779;28;47589;-82
2023/12/18 11:51:31;;;;;;;;;30.50;29.50;;;;;;;;5063588;28;45747;-83
2023/12/18 11:53:57;;;;;;;;;34.25;32.25;;;;;;;;5081155;28;45347;-83
2023/12/18 11:56:22;;;;;;;;;32.50;29.00;;;;;;;;5063288;28;46080;-81
2023/12/18 11:58:48;;;;;;;;;43.00;35.75;;;;;;;;5081393;28;46151;-82
2023/12/18 12:01:13;;;;;;;;;37.25;35.50;;;;;;;;5063773;28;45905;-81
2023/12/18 12:03:39;;;;;;;;;51.75;39.25;;;;;;;;5082582;28;45217;-83
2023/12/18 12:06:07;;;;;;;;;41.75;35.25;;;;;;;;5064191;28;46042;-82
2023/12/18 12:08:32;;;;;;;;;33.25;31.75;;;;;;;;5082600;28;45362;-85
2023/12/18 12:10:57;;;;;;;;;44.00;37.50;;;;;;;;5082012;28;45660;-87
2023/12/18 12:13:24;;;;;;;;;39.67;29.00;;;;;;;;5079651;28;45248;-82
2023/12/18 12:15:53;;;;;;;;;39.25;35.75;;;;;;;;5080506;28;45752;-82
2023/12/18 12:18:19;;;;;;;;;32.67;31.33;;;;;;;;5056997;28;46385;-82
2023/12/18 12:20:44;;;;;;;;;41.25;36.25;;;;;;;;5082709;28;45317;-83
2023/12/18 12:23:09;;;;;;;;;34.75;34.00;;;;;;;;5084441;28;45174;-85
2023/12/18 12:25:34;;;;;;;;;30.33;28.67;;;;;;;;5063418;28;46191;-82
2023/12/18 12:27:59;;;;;;;;;35.75;31.75;;;;;;;;5082547;28;46337;-82
2023/12/18 12:30:25;;;;;;;;;35.75;30.50;;;;;;;;5084309;28;45420;-83
2023/12/18 12:32:51;;;;;;;;;29.50;26.25;;;;;;;;5082445;28;45263;-82
2023/12/18 12:35:18;;;;;;;;;35.33;29.00;;;;;;;;5080957;28;45369;-81
2023/12/18 12:37:43;;;;;;;;;34.50;30.00;;;;;;;;5081542;28;45356;-82
2023/12/18 12:40:09;;;;;;;;;33.25;30.00;;;;;;;;5080999;28;45365;-82
2023/12/18 12:42:42;;;;;;;;;27.00;27.00;;;;;;;;5081562;28;45334;-83
2023/12/18 12:45:11;;;;;;;;;26.00;22.33;;;;;;;;5063628;28;46508;-84
2023/12/18 12:47:37;;;;;;;;;19.67;18.00;;;;;;;;5080927;28;45434;-82
2023/12/18 12:50:04;;;;;;;;;23.33;20.67;;;;;;;;5059150;28;45304;-84
2023/12/18 12:52:30;;;;;;;;;25.33;24.00;;;;;;;;5057234;28;45520;-82
2023/12/18 12:54:55;;;;;;;;;32.00;25.00;;;;;;;;5044511;28;45228;-82
2023/12/18 12:57:20;;;;;;;;;33.33;28.67;;;;;;;;5060376;28;45599;-82
2023/12/18 12:59:52;;;;;;;;;28.00;26.67;;;;;;;;5059007;28;45393;-82
2023/12/18 13:02:18;;;;;;;;;24.33;18.33;;;;;;;;5057741;28;45489;-82
2023/12/18 13:04:43;;;;;;;;;18.67;18.67;;;;;;;;5039671;28;45932;-81
2023/12/18 13:07:08;;;;;;;;;26.67;25.00;;;;;;;;5060166;28;46191;-83
2023/12/18 13:09:34;;;;;;;;;28.33;26.33;;;;;;;;5059516;28;45414;-81
2023/12/18 13:12:02;;;;;;;;;28.50;26.50;;;;;;;;5060914;28;45424;-83
2023/12/18 13:14:27;;;;;;;;;30.25;30.00;;;;;;;;5061447;28;45404;-81
2023/12/18 13:16:52;;;;;;;;;31.33;26.67;;;;;;;;5060882;28;45357;-82
2023/12/18 13:19:18;;;;;;;;;32.00;30.00;;;;;;;;5059081;28;45207;-80
2023/12/18 13:21:43;;;;;;;;;37.25;35.00;;;;;;;;5074693;28;45308;-82
2023/12/18 13:24:08;;;;;;;;;31.00;30.67;;;;;;;;5058741;28;47182;-82
2023/12/18 13:26:33;;;;;;;;;26.00;24.33;;;;;;;;5058287;28;47076;-82
2023/12/18 13:28:58;;;;;;;;;31.00;25.00;;;;;;;;5058715;28;45603;-81
2023/12/18 13:31:23;;;;;;;;;18.67;18.67;;;;;;;;5056598;28;45536;-82
2023/12/18 13:33:49;;;;;;;;;33.33;26.00;;;;;;;;5056535;28;46929;-82
2023/12/18 13:36:14;;;;;;;;;17.00;16.00;;;;;;;;5057489;28;47146;-82
2023/12/18 13:38:39;;;;;;;;;37.33;31.00;;;;;;;;5074057;28;45552;-81
2023/12/18 13:41:04;;;;;;;;;32.33;26.00;;;;;;;;5057012;28;45289;-83
2023/12/18 13:43:29;;;;;;;;;24.33;21.67;;;;;;;;5060247;28;45520;-82
2023/12/18 13:45:55;;;;;;;;;18.67;17.33;;;;;;;;5059575;28;45302;-81
2023/12/18 13:48:20;;;;;;;;;31.33;25.67;;;;;;;;5060813;28;45232;-81
2023/12/18 13:50:45;;;;;;;;;26.00;25.67;;;;;;;;5073079;28;45497;-82
2023/12/18 13:53:11;;;;;;;;;27.00;24.67;;;;;;;;5080381;28;45334;-81
2023/12/18 13:55:36;;;;;;;;;31.67;26.67;;;;;;;;5078903;28;45487;-82
2023/12/18 13:58:01;;;;;;;;;32.00;28.00;;;;;;;;5072271;28;45394;-82
2023/12/18 14:00:27;;;;;;;;;23.00;21.33;;;;;;;;5095358;27;45468;-81
2023/12/18 14:02:52;;;;;;;;;24.00;23.33;;;;;;;;5079956;27;45476;-82
2023/12/18 14:05:25;;;;;;;;;24.67;20.33;;;;;;;;5096018;27;46924;-85
2023/12/18 14:07:50;;;;;;;;;24.33;23.67;;;;;;;;5095549;27;45488;-83
2023/12/18 14:10:16;;;;;;;;;27.00;22.67;;;;;;;;5077572;28;45440;-83